sensor_id;sensor_type;location;lat;lon;timestamp;pressure;altitude;pressure_sealevel;temperature;humidity
56821;BME280;42702;50.178;20.992;2022-07-25T00:00:36;99583.39;;;18.62;61.81
56821;BME280;42702;50.178;20.992;2022-07-25T00:03:05;99584.23;;;18.64;61.72
56821;BME280;42702;50.178;20.992;2022-07-25T00:05:37;99585.98;;;18.59;61.65
56821;BME280;42702;50.178;20.992;2022-07-25T00:08:05;99584.70;;;18.50;61.63
56821;BME280;42702;50.178;20.992;2022-07-25T00:10:34;99583.10;;;18.45;61.86
56821;BME280;42702;50.178;20.992;2022-07-25T00:13:02;99579.27;;;18.43;61.89
56821;BME280;42702;50.178;20.992;2022-07-25T00:15:30;99577.77;;;18.40;61.91
56821;BME280;42702;50.178;20.992;2022-07-25T00:17:58;99579.80;;;18.37;62.02
56821;BME280;42702;50.178;20.992;2022-07-25T00:20:27;99579.08;;;18.38;61.94
56821;BME280;42702;50.178;20.992;2022-07-25T00:22:55;99574.98;;;18.39;61.85
56821;BME280;42702;50.178;20.992;2022-07-25T00:25:23;99576.13;;;18.36;62.06
56821;BME280;42702;50.178;20.992;2022-07-25T00:27:51;99573.38;;;18.34;62.15
56821;BME280;42702;50.178;20.992;2022-07-25T00:30:19;99574.85;;;18.33;62.34
56821;BME280;42702;50.178;20.992;2022-07-25T00:32:47;99573.00;;;18.30;62.56
56821;BME280;42702;50.178;20.992;2022-07-25T00:35:16;99573.85;;;18.25;62.50
56821;BME280;42702;50.178;20.992;2022-07-25T00:37:44;99572.09;;;18.25;62.60
56821;BME280;42702;50.178;20.992;2022-07-25T00:40:12;99573.35;;;18.25;62.47
56821;BME280;42702;50.178;20.992;2022-07-25T00:42:40;99570.38;;;18.23;62.42
56821;BME280;42702;50.178;20.992;2022-07-25T00:45:09;99573.42;;;18.22;62.31
56821;BME280;42702;50.178;20.992;2022-07-25T00:47:37;99577.35;;;18.21;62.45
56821;BME280;42702;50.178;20.992;2022-07-25T00:50:06;99578.02;;;18.16;62.61
56821;BME280;42702;50.178;20.992;2022-07-25T00:52:35;99579.73;;;18.12;62.69
56821;BME280;42702;50.178;20.992;2022-07-25T00:55:04;99579.45;;;18.11;62.82
56821;BME280;42702;50.178;20.992;2022-07-25T00:57:33;99579.22;;;18.06;62.89
56821;BME280;42702;50.178;20.992;2022-07-25T01:00:03;99577.96;;;18.01;63.09
56821;BME280;42702;50.178;20.992;2022-07-25T01:02:32;99575.89;;;18.00;63.09
56821;BME280;42702;50.178;20.992;2022-07-25T01:05:01;99573.65;;;17.98;63.05
56821;BME280;42702;50.178;20.992;2022-07-25T01:07:30;99569.32;;;17.96;63.20
56821;BME280;42702;50.178;20.992;2022-07-25T01:09:58;99571.20;;;17.92;63.03
56821;BME280;42702;50.178;20.992;2022-07-25T01:12:27;99574.55;;;17.85;63.10
56821;BME280;42702;50.178;20.992;2022-07-25T01:14:56;99570.51;;;17.85;63.29
56821;BME280;42702;50.178;20.992;2022-07-25T01:17:24;99567.36;;;17.84;63.29
56821;BME280;42702;50.178;20.992;2022-07-25T01:19:53;99565.42;;;17.83;63.15
56821;BME280;42702;50.178;20.992;2022-07-25T01:22:21;99568.60;;;17.84;63.31
56821;BME280;42702;50.178;20.992;2022-07-25T01:24:49;99569.39;;;17.88;63.19
56821;BME280;42702;50.178;20.992;2022-07-25T01:27:18;99569.73;;;17.89;63.14
56821;BME280;42702;50.178;20.992;2022-07-25T01:29:46;99571.02;;;17.86;63.47
56821;BME280;42702;50.178;20.992;2022-07-25T01:32:14;99573.75;;;17.83;63.41
56821;BME280;42702;50.178;20.992;2022-07-25T01:34:42;99563.08;;;17.80;63.35
56821;BME280;42702;50.178;20.992;2022-07-25T01:37:10;99560.40;;;17.81;63.34
56821;BME280;42702;50.178;20.992;2022-07-25T01:39:38;99563.44;;;17.79;63.38
56821;BME280;42702;50.178;20.992;2022-07-25T01:42:07;99561.38;;;17.78;63.34
56821;BME280;42702;50.178;20.992;2022-07-25T01:44:35;99558.45;;;17.76;63.41
56821;BME280;42702;50.178;20.992;2022-07-25T01:47:03;99558.87;;;17.74;63.39
56821;BME280;42702;50.178;20.992;2022-07-25T01:49:32;99551.96;;;17.69;63.40
56821;BME280;42702;50.178;20.992;2022-07-25T01:52:00;99551.33;;;17.66;63.48
56821;BME280;42702;50.178;20.992;2022-07-25T01:54:28;99551.59;;;17.63;63.42
56821;BME280;42702;50.178;20.992;2022-07-25T01:56:58;99549.77;;;17.65;63.41
56821;BME280;42702;50.178;20.992;2022-07-25T01:59:27;99549.98;;;17.64;63.27
56821;BME280;42702;50.178;20.992;2022-07-25T02:01:55;99547.83;;;17.60;63.47
56821;BME280;42702;50.178;20.992;2022-07-25T02:04:24;99548.73;;;17.53;63.36
56821;BME280;42702;50.178;20.992;2022-07-25T02:06:52;99550.91;;;17.45;63.57
56821;BME280;42702;50.178;20.992;2022-07-25T02:09:20;99546.86;;;17.38;63.55
56821;BME280;42702;50.178;20.992;2022-07-25T02:11:48;99548.68;;;17.31;63.62
56821;BME280;42702;50.178;20.992;2022-07-25T02:14:17;99546.08;;;17.23;63.76
56821;BME280;42702;50.178;20.992;2022-07-25T02:16:45;99545.23;;;17.21;63.90
56821;BME280;42702;50.178;20.992;2022-07-25T02:19:13;99547.41;;;17.14;63.69
56821;BME280;42702;50.178;20.992;2022-07-25T02:21:41;99547.63;;;17.06;63.85
56821;BME280;42702;50.178;20.992;2022-07-25T02:24:10;99547.85;;;17.04;64.26
56821;BME280;42702;50.178;20.992;2022-07-25T02:26:38;99549.14;;;17.08;64.35
56821;BME280;42702;50.178;20.992;2022-07-25T02:29:06;99547.73;;;17.08;64.44
56821;BME280;42702;50.178;20.992;2022-07-25T02:31:34;99545.60;;;17.09;64.55
56821;BME280;42702;50.178;20.992;2022-07-25T02:34:03;99549.70;;;17.13;64.60
56821;BME280;42702;50.178;20.992;2022-07-25T02:36:32;99547.41;;;17.13;64.52
56821;BME280;42702;50.178;20.992;2022-07-25T02:39:00;99546.20;;;17.13;64.70
56821;BME280;42702;50.178;20.992;2022-07-25T02:41:28;99546.95;;;17.11;64.49
56821;BME280;42702;50.178;20.992;2022-07-25T02:43:57;99549.60;;;17.10;64.65
56821;BME280;42702;50.178;20.992;2022-07-25T02:46:25;99546.53;;;17.07;64.63
56821;BME280;42702;50.178;20.992;2022-07-25T02:48:53;99546.29;;;17.03;64.88
56821;BME280;42702;50.178;20.992;2022-07-25T02:51:22;99544.48;;;17.05;64.73
56821;BME280;42702;50.178;20.992;2022-07-25T02:53:51;99543.39;;;17.05;64.61
56821;BME280;42702;50.178;20.992;2022-07-25T02:56:35;99540.52;;;17.08;64.54
56821;BME280;42702;50.178;20.992;2022-07-25T02:59:03;99539.73;;;17.11;64.52
56821;BME280;42702;50.178;20.992;2022-07-25T03:01:32;99539.98;;;17.14;64.33
56821;BME280;42702;50.178;20.992;2022-07-25T03:04:00;99540.68;;;17.15;64.38
56821;BME280;42702;50.178;20.992;2022-07-25T03:06:28;99540.58;;;17.12;64.24
56821;BME280;42702;50.178;20.992;2022-07-25T03:08:57;99539.73;;;17.11;64.33
56821;BME280;42702;50.178;20.992;2022-07-25T03:11:25;99539.61;;;17.09;64.27
56821;BME280;42702;50.178;20.992;2022-07-25T03:13:53;99540.90;;;17.07;64.33
56821;BME280;42702;50.178;20.992;2022-07-25T03:16:22;99539.65;;;17.07;64.37
56821;BME280;42702;50.178;20.992;2022-07-25T03:18:50;99543.02;;;17.06;64.26
56821;BME280;42702;50.178;20.992;2022-07-25T03:21:19;99543.23;;;17.05;64.20
56821;BME280;42702;50.178;20.992;2022-07-25T03:23:47;99545.11;;;17.07;64.15
56821;BME280;42702;50.178;20.992;2022-07-25T03:26:19;99548.30;;;17.07;64.22
56821;BME280;42702;50.178;20.992;2022-07-25T03:28:48;99550.13;;;17.04;64.33
56821;BME280;42702;50.178;20.992;2022-07-25T03:31:16;99551.02;;;17.04;64.29
56821;BME280;42702;50.178;20.992;2022-07-25T03:33:44;99555.92;;;17.05;64.35
56821;BME280;42702;50.178;20.992;2022-07-25T03:36:13;99554.48;;;17.06;64.41
56821;BME280;42702;50.178;20.992;2022-07-25T03:38:41;99555.01;;;17.06;64.51
56821;BME280;42702;50.178;20.992;2022-07-25T03:41:10;99553.96;;;17.05;64.41
56821;BME280;42702;50.178;20.992;2022-07-25T03:43:39;99553.14;;;17.04;64.50
56821;BME280;42702;50.178;20.992;2022-07-25T03:46:07;99554.95;;;17.02;64.60
56821;BME280;42702;50.178;20.992;2022-07-25T03:48:35;99556.05;;;17.00;64.63
56821;BME280;42702;50.178;20.992;2022-07-25T03:51:04;99554.42;;;17.02;64.60
56821;BME280;42702;50.178;20.992;2022-07-25T03:53:34;99551.47;;;17.07;64.54
56821;BME280;42702;50.178;20.992;2022-07-25T03:56:23;99550.91;;;17.08;64.56
56821;BME280;42702;50.178;20.992;2022-07-25T03:58:51;99549.84;;;17.08;64.59
56821;BME280;42702;50.178;20.992;2022-07-25T04:01:19;99545.34;;;17.12;64.83
56821;BME280;42702;50.178;20.992;2022-07-25T04:03:49;99545.43;;;17.15;64.67
56821;BME280;42702;50.178;20.992;2022-07-25T04:06:17;99545.56;;;17.16;64.78
56821;BME280;42702;50.178;20.992;2022-07-25T04:08:45;99544.29;;;17.18;64.62
56821;BME280;42702;50.178;20.992;2022-07-25T04:11:14;99549.16;;;17.20;64.90
56821;BME280;42702;50.178;20.992;2022-07-25T04:13:43;99551.27;;;17.20;65.01
56821;BME280;42702;50.178;20.992;2022-07-25T04:16:11;99545.75;;;17.22;65.20
56821;BME280;42702;50.178;20.992;2022-07-25T04:18:50;99546.14;;;17.27;65.19
56821;BME280;42702;50.178;20.992;2022-07-25T04:21:19;99542.04;;;17.35;65.28
56821;BME280;42702;50.178;20.992;2022-07-25T04:23:48;99543.16;;;17.39;65.39
56821;BME280;42702;50.178;20.992;2022-07-25T04:26:17;99543.74;;;17.43;65.48
56821;BME280;42702;50.178;20.992;2022-07-25T04:28:46;99540.45;;;17.47;65.67
56821;BME280;42702;50.178;20.992;2022-07-25T04:31:15;99540.00;;;17.50;65.66
56821;BME280;42702;50.178;20.992;2022-07-25T04:33:44;99539.34;;;17.55;66.00
56821;BME280;42702;50.178;20.992;2022-07-25T04:36:13;99536.35;;;17.60;66.10
56821;BME280;42702;50.178;20.992;2022-07-25T04:38:41;99538.13;;;17.65;66.15
56821;BME280;42702;50.178;20.992;2022-07-25T04:41:09;99537.23;;;17.72;66.26
56821;BME280;42702;50.178;20.992;2022-07-25T04:43:38;99535.31;;;17.82;66.18
56821;BME280;42702;50.178;20.992;2022-07-25T04:46:11;99535.15;;;17.89;66.09
56821;BME280;42702;50.178;20.992;2022-07-25T04:48:39;99531.88;;;17.92;66.09
56821;BME280;42702;50.178;20.992;2022-07-25T04:51:12;99527.77;;;17.99;65.94
56821;BME280;42702;50.178;20.992;2022-07-25T04:53:41;99525.52;;;18.09;65.54
56821;BME280;42702;50.178;20.992;2022-07-25T04:56:09;99528.89;;;18.19;64.97
56821;BME280;42702;50.178;20.992;2022-07-25T04:58:37;99524.56;;;18.27;64.74
56821;BME280;42702;50.178;20.992;2022-07-25T05:01:05;99518.00;;;18.33;64.87
56821;BME280;42702;50.178;20.992;2022-07-25T05:03:34;99515.27;;;18.41;64.80
56821;BME280;42702;50.178;20.992;2022-07-25T05:06:02;99508.50;;;18.49;64.70
56821;BME280;42702;50.178;20.992;2022-07-25T05:08:31;99506.66;;;18.56;64.57
56821;BME280;42702;50.178;20.992;2022-07-25T05:10:59;99505.11;;;18.59;64.38
56821;BME280;42702;50.178;20.992;2022-07-25T05:13:27;99505.73;;;18.62;64.36
56821;BME280;42702;50.178;20.992;2022-07-25T05:15:55;99508.20;;;18.67;64.24
56821;BME280;42702;50.178;20.992;2022-07-25T05:18:24;99507.50;;;18.72;63.96
56821;BME280;42702;50.178;20.992;2022-07-25T05:20:52;99513.49;;;18.77;63.92
56821;BME280;42702;50.178;20.992;2022-07-25T05:23:20;99505.61;;;18.87;63.86
56821;BME280;42702;50.178;20.992;2022-07-25T05:25:49;99499.96;;;18.91;63.56
56821;BME280;42702;50.178;20.992;2022-07-25T05:28:18;99496.95;;;18.96;63.55
56821;BME280;42702;50.178;20.992;2022-07-25T05:30:46;99497.42;;;19.03;63.60
56821;BME280;42702;50.178;20.992;2022-07-25T05:33:14;99496.09;;;19.10;63.71
56821;BME280;42702;50.178;20.992;2022-07-25T05:35:42;99497.42;;;19.17;63.39
56821;BME280;42702;50.178;20.992;2022-07-25T05:38:11;99495.95;;;19.23;63.36
56821;BME280;42702;50.178;20.992;2022-07-25T05:40:39;99496.09;;;19.29;63.16
56821;BME280;42702;50.178;20.992;2022-07-25T05:43:07;99494.06;;;19.35;63.16
56821;BME280;42702;50.178;20.992;2022-07-25T05:45:36;99498.17;;;19.39;62.78
56821;BME280;42702;50.178;20.992;2022-07-25T05:48:05;99502.09;;;19.43;62.52
56821;BME280;42702;50.178;20.992;2022-07-25T05:50:35;99501.06;;;19.47;62.52
56821;BME280;42702;50.178;20.992;2022-07-25T05:53:03;99504.23;;;19.52;62.52
56821;BME280;42702;50.178;20.992;2022-07-25T05:55:32;99506.86;;;19.57;62.51
56821;BME280;42702;50.178;20.992;2022-07-25T05:58:00;99505.98;;;19.62;62.50
56821;BME280;42702;50.178;20.992;2022-07-25T06:00:29;99499.94;;;19.67;62.72
56821;BME280;42702;50.178;20.992;2022-07-25T06:02:58;99494.40;;;19.73;62.59
56821;BME280;42702;50.178;20.992;2022-07-25T06:05:27;99491.23;;;19.77;62.61
56821;BME280;42702;50.178;20.992;2022-07-25T06:07:55;99493.46;;;19.84;62.55
56821;BME280;42702;50.178;20.992;2022-07-25T06:10:24;99490.42;;;19.93;62.36
56821;BME280;42702;50.178;20.992;2022-07-25T06:12:52;99494.60;;;19.99;62.48
56821;BME280;42702;50.178;20.992;2022-07-25T06:15:20;99496.68;;;20.04;62.45
56821;BME280;42702;50.178;20.992;2022-07-25T06:17:53;99492.37;;;20.10;62.47
56821;BME280;42702;50.178;20.992;2022-07-25T06:20:21;99490.37;;;20.16;62.38
56821;BME280;42702;50.178;20.992;2022-07-25T06:22:50;99490.55;;;20.20;61.97
56821;BME280;42702;50.178;20.992;2022-07-25T06:25:18;99489.60;;;20.26;62.02
56821;BME280;42702;50.178;20.992;2022-07-25T06:27:46;99484.27;;;20.30;61.82
56821;BME280;42702;50.178;20.992;2022-07-25T06:30:14;99482.85;;;20.35;61.83
56821;BME280;42702;50.178;20.992;2022-07-25T06:32:48;99481.50;;;20.38;61.68
56821;BME280;42702;50.178;20.992;2022-07-25T06:35:17;99478.18;;;20.41;61.46
56821;BME280;42702;50.178;20.992;2022-07-25T06:37:45;99480.50;;;20.44;61.28
56821;BME280;42702;50.178;20.992;2022-07-25T06:40:14;99476.50;;;20.47;61.31
56821;BME280;42702;50.178;20.992;2022-07-25T06:42:44;99478.70;;;20.49;61.12
56821;BME280;42702;50.178;20.992;2022-07-25T06:45:13;99479.30;;;20.52;61.03
56821;BME280;42702;50.178;20.992;2022-07-25T06:47:43;99476.15;;;20.55;60.87
56821;BME280;42702;50.178;20.992;2022-07-25T06:50:15;99470.45;;;20.56;60.68
56821;BME280;42702;50.178;20.992;2022-07-25T06:52:48;99473.04;;;20.57;60.67
56821;BME280;42702;50.178;20.992;2022-07-25T06:55:16;99476.83;;;20.60;60.48
56821;BME280;42702;50.178;20.992;2022-07-25T06:57:45;99479.74;;;20.63;60.23
56821;BME280;42702;50.178;20.992;2022-07-25T07:00:14;99475.56;;;20.65;60.10
56821;BME280;42702;50.178;20.992;2022-07-25T07:05:19;99476.54;;;20.71;59.80
56821;BME280;42702;50.178;20.992;2022-07-25T07:07:47;99476.59;;;20.74;59.80
56821;BME280;42702;50.178;20.992;2022-07-25T07:10:16;99474.48;;;20.78;59.23
56821;BME280;42702;50.178;20.992;2022-07-25T07:12:45;99471.56;;;20.80;58.73
56821;BME280;42702;50.178;20.992;2022-07-25T07:15:14;99465.27;;;20.81;58.54
56821;BME280;42702;50.178;20.992;2022-07-25T07:17:42;99463.74;;;20.84;58.21
56821;BME280;42702;50.178;20.992;2022-07-25T07:20:11;99464.64;;;20.87;58.15
56821;BME280;42702;50.178;20.992;2022-07-25T07:22:47;99459.36;;;20.91;58.12
56821;BME280;42702;50.178;20.992;2022-07-25T07:25:17;99458.25;;;20.96;57.97
56821;BME280;42702;50.178;20.992;2022-07-25T07:27:46;99454.66;;;20.97;57.90
56821;BME280;42702;50.178;20.992;2022-07-25T07:30:14;99458.48;;;20.99;58.00
56821;BME280;42702;50.178;20.992;2022-07-25T07:32:50;99453.55;;;21.01;57.75
56821;BME280;42702;50.178;20.992;2022-07-25T07:35:19;99450.95;;;21.04;57.74
56821;BME280;42702;50.178;20.992;2022-07-25T07:37:47;99451.50;;;21.08;58.00
56821;BME280;42702;50.178;20.992;2022-07-25T07:40:16;99450.39;;;21.13;58.04
56821;BME280;42702;50.178;20.992;2022-07-25T07:42:46;99447.00;;;21.17;57.78
56821;BME280;42702;50.178;20.992;2022-07-25T07:47:47;99439.39;;;21.24;57.18
56821;BME280;42702;50.178;20.992;2022-07-25T07:50:18;99433.88;;;21.28;57.58
56821;BME280;42702;50.178;20.992;2022-07-25T07:52:49;99427.65;;;21.33;57.35
56821;BME280;42702;50.178;20.992;2022-07-25T07:55:17;99426.91;;;21.37;57.13
56821;BME280;42702;50.178;20.992;2022-07-25T07:58:04;99429.42;;;21.44;57.45
56821;BME280;42702;50.178;20.992;2022-07-25T08:00:34;99426.92;;;21.49;56.69
56821;BME280;42702;50.178;20.992;2022-07-25T08:03:03;99423.02;;;21.53;56.70
56821;BME280;42702;50.178;20.992;2022-07-25T08:05:34;99422.80;;;21.57;56.54
56821;BME280;42702;50.178;20.992;2022-07-25T08:08:05;99424.21;;;21.61;56.51
56821;BME280;42702;50.178;20.992;2022-07-25T08:10:36;99425.91;;;21.66;56.13
56821;BME280;42702;50.178;20.992;2022-07-25T08:13:31;99421.84;;;21.69;55.85
56821;BME280;42702;50.178;20.992;2022-07-25T08:16:05;99422.11;;;21.75;55.50
56821;BME280;42702;50.178;20.992;2022-07-25T08:18:33;99420.17;;;21.78;55.67
56821;BME280;42702;50.178;20.992;2022-07-25T08:21:02;99415.85;;;21.83;55.36
56821;BME280;42702;50.178;20.992;2022-07-25T08:23:33;99413.30;;;21.88;55.54
56821;BME280;42702;50.178;20.992;2022-07-25T08:26:02;99410.55;;;21.93;55.10
56821;BME280;42702;50.178;20.992;2022-07-25T08:28:31;99412.36;;;21.96;54.44
56821;BME280;42702;50.178;20.992;2022-07-25T08:30:59;99412.14;;;22.00;54.77
56821;BME280;42702;50.178;20.992;2022-07-25T08:33:28;99413.79;;;22.06;54.70
56821;BME280;42702;50.178;20.992;2022-07-25T08:35:57;99414.37;;;22.09;54.17
56821;BME280;42702;50.178;20.992;2022-07-25T08:38:28;99415.71;;;22.14;54.53
56821;BME280;42702;50.178;20.992;2022-07-25T08:40:57;99416.98;;;22.17;54.00
56821;BME280;42702;50.178;20.992;2022-07-25T08:43:28;99414.50;;;22.20;54.24
56821;BME280;42702;50.178;20.992;2022-07-25T08:46:00;99413.42;;;22.24;54.15
56821;BME280;42702;50.178;20.992;2022-07-25T08:48:29;99413.67;;;22.26;53.69
56821;BME280;42702;50.178;20.992;2022-07-25T08:50:58;99406.81;;;22.29;53.81
56821;BME280;42702;50.178;20.992;2022-07-25T08:53:26;99409.25;;;22.33;53.70
56821;BME280;42702;50.178;20.992;2022-07-25T08:56:06;99405.70;;;22.37;53.14
56821;BME280;42702;50.178;20.992;2022-07-25T08:58:44;99398.73;;;22.41;53.24
56821;BME280;42702;50.178;20.992;2022-07-25T09:01:12;99398.60;;;22.43;53.24
56821;BME280;42702;50.178;20.992;2022-07-25T09:03:42;99401.79;;;22.47;52.71
56821;BME280;42702;50.178;20.992;2022-07-25T09:06:18;99397.09;;;22.51;52.79
56821;BME280;42702;50.178;20.992;2022-07-25T09:08:57;99394.55;;;22.59;53.18
56821;BME280;42702;50.178;20.992;2022-07-25T09:11:29;99392.80;;;22.66;52.65
56821;BME280;42702;50.178;20.992;2022-07-25T09:14:03;99391.40;;;22.69;52.28
56821;BME280;42702;50.178;20.992;2022-07-25T09:16:40;99387.06;;;22.73;52.07
56821;BME280;42702;50.178;20.992;2022-07-25T09:19:16;99388.73;;;22.78;52.62
56821;BME280;42702;50.178;20.992;2022-07-25T09:21:57;99386.33;;;22.87;52.60
56821;BME280;42702;50.178;20.992;2022-07-25T09:24:29;99384.25;;;22.95;52.70
56821;BME280;42702;50.178;20.992;2022-07-25T09:26:59;99380.88;;;23.02;52.53
56821;BME280;42702;50.178;20.992;2022-07-25T09:29:31;99374.67;;;23.12;52.90
56821;BME280;42702;50.178;20.992;2022-07-25T09:32:01;99367.86;;;23.22;52.04
56821;BME280;42702;50.178;20.992;2022-07-25T09:34:41;99366.55;;;23.33;52.08
56821;BME280;42702;50.178;20.992;2022-07-25T09:37:13;99367.02;;;23.43;52.61
56821;BME280;42702;50.178;20.992;2022-07-25T09:39:46;99369.09;;;23.57;52.59
56821;BME280;42702;50.178;20.992;2022-07-25T09:42:31;99366.34;;;23.67;52.05
56821;BME280;42702;50.178;20.992;2022-07-25T09:47:36;99367.69;;;23.88;51.79
56821;BME280;42702;50.178;20.992;2022-07-25T09:50:06;99364.70;;;23.99;51.07
56821;BME280;42702;50.178;20.992;2022-07-25T09:52:34;99361.80;;;24.09;50.87
56821;BME280;42702;50.178;20.992;2022-07-25T09:55:04;99357.19;;;24.21;51.09
56821;BME280;42702;50.178;20.992;2022-07-25T09:57:34;99356.45;;;24.32;50.24
56821;BME280;42702;50.178;20.992;2022-07-25T10:00:06;99348.91;;;24.45;50.52
56821;BME280;42702;50.178;20.992;2022-07-25T10:03:13;99339.73;;;24.59;50.41
56821;BME280;42702;50.178;20.992;2022-07-25T10:05:49;99339.46;;;24.77;49.82
56821;BME280;42702;50.178;20.992;2022-07-25T10:08:19;99332.73;;;24.90;49.27
56821;BME280;42702;50.178;20.992;2022-07-25T10:10:48;99333.61;;;25.02;49.17
56821;BME280;42702;50.178;20.992;2022-07-25T10:13:28;99335.46;;;25.12;47.91
56821;BME280;42702;50.178;20.992;2022-07-25T10:15:57;99329.84;;;25.24;48.45
56821;BME280;42702;50.178;20.992;2022-07-25T10:18:27;99329.33;;;25.38;48.28
56821;BME280;42702;50.178;20.992;2022-07-25T10:21:09;99328.28;;;25.48;46.65
56821;BME280;42702;50.178;20.992;2022-07-25T10:24:01;99326.81;;;25.51;46.27
56821;BME280;42702;50.178;20.992;2022-07-25T10:26:33;99322.61;;;25.53;45.30
56821;BME280;42702;50.178;20.992;2022-07-25T10:29:07;99319.33;;;25.57;46.16
56821;BME280;42702;50.178;20.992;2022-07-25T10:31:40;99318.33;;;25.64;46.62
56821;BME280;42702;50.178;20.992;2022-07-25T10:34:27;99317.84;;;25.73;45.83
56821;BME280;42702;50.178;20.992;2022-07-25T10:36:56;99321.05;;;25.82;46.39
56821;BME280;42702;50.178;20.992;2022-07-25T10:39:24;99314.00;;;25.90;45.72
56821;BME280;42702;50.178;20.992;2022-07-25T10:41:58;99310.35;;;25.95;45.13
56821;BME280;42702;50.178;20.992;2022-07-25T10:44:40;99309.33;;;26.10;45.82
56821;BME280;42702;50.178;20.992;2022-07-25T10:47:12;99303.06;;;26.25;46.13
56821;BME280;42702;50.178;20.992;2022-07-25T10:49:42;99300.02;;;26.41;46.08
56821;BME280;42702;50.178;20.992;2022-07-25T10:52:39;99299.50;;;26.51;45.88
56821;BME280;42702;50.178;20.992;2022-07-25T10:55:08;99301.88;;;26.52;45.58
56821;BME280;42702;50.178;20.992;2022-07-25T10:57:36;99294.29;;;26.48;44.97
56821;BME280;42702;50.178;20.992;2022-07-25T11:00:21;99290.63;;;26.39;44.60
56821;BME280;42702;50.178;20.992;2022-07-25T11:02:55;99282.56;;;26.27;44.26
56821;BME280;42702;50.178;20.992;2022-07-25T11:05:23;99280.64;;;26.16;44.64
56821;BME280;42702;50.178;20.992;2022-07-25T11:07:52;99279.40;;;26.11;44.97
56821;BME280;42702;50.178;20.992;2022-07-25T11:10:49;99279.50;;;26.20;44.63
56821;BME280;42702;50.178;20.992;2022-07-25T11:13:18;99274.17;;;26.35;44.65
56821;BME280;42702;50.178;20.992;2022-07-25T11:15:46;99274.15;;;26.53;44.56
56821;BME280;42702;50.178;20.992;2022-07-25T11:18:15;99269.52;;;26.65;43.49
56821;BME280;42702;50.178;20.992;2022-07-25T11:20:45;99269.25;;;26.74;43.32
56821;BME280;42702;50.178;20.992;2022-07-25T11:23:20;99267.31;;;26.83;42.97
56821;BME280;42702;50.178;20.992;2022-07-25T11:25:48;99266.19;;;26.91;42.46
56821;BME280;42702;50.178;20.992;2022-07-25T11:28:18;99265.73;;;27.00;42.36
56821;BME280;42702;50.178;20.992;2022-07-25T11:30:46;99260.64;;;27.06;41.76
56821;BME280;42702;50.178;20.992;2022-07-25T11:33:14;99254.51;;;27.14;42.05
56821;BME280;42702;50.178;20.992;2022-07-25T11:35:44;99253.05;;;27.21;41.57
56821;BME280;42702;50.178;20.992;2022-07-25T11:38:13;99247.96;;;27.25;40.93
56821;BME280;42702;50.178;20.992;2022-07-25T11:40:42;99244.57;;;27.25;40.98
56821;BME280;42702;50.178;20.992;2022-07-25T11:43:21;99244.90;;;27.28;41.19
56821;BME280;42702;50.178;20.992;2022-07-25T11:46:00;99238.05;;;27.36;41.21
56821;BME280;42702;50.178;20.992;2022-07-25T11:51:14;99233.92;;;27.57;41.02
56821;BME280;42702;50.178;20.992;2022-07-25T11:53:48;99234.63;;;27.62;41.25
56821;BME280;42702;50.178;20.992;2022-07-25T11:56:23;99234.86;;;27.63;41.32
56821;BME280;42702;50.178;20.992;2022-07-25T11:59:09;99232.98;;;27.69;41.06
56821;BME280;42702;50.178;20.992;2022-07-25T12:01:40;99226.98;;;27.79;40.91
56821;BME280;42702;50.178;20.992;2022-07-25T12:04:14;99227.00;;;27.86;40.94
56821;BME280;42702;50.178;20.992;2022-07-25T12:06:44;99219.55;;;27.93;40.83
56821;BME280;42702;50.178;20.992;2022-07-25T12:09:20;99218.98;;;27.98;40.97
56821;BME280;42702;50.178;20.992;2022-07-25T12:11:49;99216.46;;;28.04;40.88
56821;BME280;42702;50.178;20.992;2022-07-25T12:14:17;99211.73;;;28.15;41.10
56821;BME280;42702;50.178;20.992;2022-07-25T12:16:45;99203.92;;;28.27;40.65
56821;BME280;42702;50.178;20.992;2022-07-25T12:19:19;99199.66;;;28.38;40.45
56821;BME280;42702;50.178;20.992;2022-07-25T12:21:48;99196.98;;;28.49;40.23
56821;BME280;42702;50.178;20.992;2022-07-25T12:24:16;99195.85;;;28.58;40.06
56821;BME280;42702;50.178;20.992;2022-07-25T12:26:44;99189.55;;;28.63;39.35
56821;BME280;42702;50.178;20.992;2022-07-25T12:29:12;99187.84;;;28.71;39.52
56821;BME280;42702;50.178;20.992;2022-07-25T12:31:40;99186.02;;;28.76;39.14
56821;BME280;42702;50.178;20.992;2022-07-25T12:34:09;99184.83;;;28.85;39.63
56821;BME280;42702;50.178;20.992;2022-07-25T12:36:37;99182.31;;;28.94;38.68
56821;BME280;42702;50.178;20.992;2022-07-25T12:39:11;99180.69;;;28.97;37.96
56821;BME280;42702;50.178;20.992;2022-07-25T12:41:39;99178.02;;;29.03;37.64
56821;BME280;42702;50.178;20.992;2022-07-25T12:44:09;99175.00;;;29.09;37.48
56821;BME280;42702;50.178;20.992;2022-07-25T12:46:38;99171.52;;;29.16;37.28
56821;BME280;42702;50.178;20.992;2022-07-25T12:49:16;99165.85;;;29.20;37.17
56821;BME280;42702;50.178;20.992;2022-07-25T12:51:44;99163.59;;;29.25;37.24
56821;BME280;42702;50.178;20.992;2022-07-25T12:54:12;99159.23;;;29.30;37.50
56821;BME280;42702;50.178;20.992;2022-07-25T12:56:49;99154.72;;;29.34;37.74
56821;BME280;42702;50.178;20.992;2022-07-25T12:59:17;99150.36;;;29.42;37.65
56821;BME280;42702;50.178;20.992;2022-07-25T13:01:46;99146.89;;;29.40;37.35
56821;BME280;42702;50.178;20.992;2022-07-25T13:04:15;99146.98;;;29.41;37.30
56821;BME280;42702;50.178;20.992;2022-07-25T13:06:43;99148.12;;;29.43;37.26
56821;BME280;42702;50.178;20.992;2022-07-25T13:09:11;99144.75;;;29.44;37.10
56821;BME280;42702;50.178;20.992;2022-07-25T13:11:40;99144.16;;;29.45;36.97
56821;BME280;42702;50.178;20.992;2022-07-25T13:14:09;99140.10;;;29.46;36.90
56821;BME280;42702;50.178;20.992;2022-07-25T13:16:38;99137.66;;;29.47;36.75